Date,TemperatureHighF,TemperatureAvgF,TemperatureLowF,DewpointHighF,DewpointAvgF,DewpointLowF,HumidityHigh,HumidityAvg,HumidityLow,PressureMaxIn,PressureMinIn,WindSpeedMaxMPH,WindSpeedAvgMPH,GustSpeedMaxMPH,PrecipitationSumIn
2013-1-1,67.1,54.2,46.1,65.0,50.3,40.0,95,86,76,30.18,29.89,7,2,0,0.14
2013-1-2,46.0,43.2,42.2,40.0,35.1,33.0,78,73,68,30.29,30.16,7,2,0,0.00
2013-1-3,54.1,45.7,38.9,35.0,32.0,28.0,74,60,37,30.41,30.27,4,1,0,0.00
2013-1-4,49.1,47.1,44.3,36.0,34.6,32.0,71,62,56,30.48,30.34,3,0,0,0.00
2013-1-5,47.0,45.1,42.9,44.0,42.1,34.0,92,89,62,30.38,30.23,3,0,0,0.51
2013-1-6,60.1,48.0,40.2,44.0,40.8,37.0,93,78,47,30.34,30.23,7,1,0,0.01
2013-1-7,58.3,47.5,35.9,44.0,40.2,34.0,92,77,59,30.30,30.07,5,0,0,0.00
2013-1-8,63.5,57.4,50.1,62.0,54.4,43.0,94,90,71,30.08,29.86,6,1,0,0.25
2013-1-9,65.6,62.3,61.0,64.0,59.1,-99.9,94,92,92,30.02,29.87,10,-12,0,0.21
2013-1-10,69.8,57.3,52.0,53.0,48.4,46.0,89,74,44,30.08,29.97,3,0,0,0.06
2013-1-11,65.0,61.1,47.4,61.0,58.5,45.0,93,92,85,30.00,29.87,5,0,0,0.01
2013-1-12,74.2,70.4,64.3,69.0,67.8,63.0,94,91,82,29.87,29.70,4,1,0,0.07
2013-1-13,70.9,50.1,44.3,69.0,41.7,36.0,92,73,65,30.12,29.75,5,1,0,0.10
2013-1-14,45.2,43.2,39.8,37.0,36.9,36.0,89,78,69,30.20,30.08,4,1,0,0.04
2013-1-15,41.6,37.5,36.8,36.0,33.4,32.0,90,85,81,30.15,30.03,5,2,0,0.05
2013-1-16,49.8,40.7,35.3,32.0,25.9,18.0,81,58,28,30.27,30.17,3,1,0,0.00
2013-1-17,62.9,49.3,33.5,37.0,34.5,28.0,79,60,30,30.45,30.26,7,0,0,0.00
2013-1-18,62.9,47.5,36.2,37.0,35.7,33.0,90,66,33,30.52,30.36,2,0,0,0.00
2013-1-19,67.1,55.2,39.2,50.0,47.0,35.0,89,76,39,30.35,30.17,3,0,0,0.00
2013-1-20,70.8,60.0,48.0,50.0,48.5,45.0,91,67,39,30.22,30.10,1,0,0,0.00
2013-1-21,69.8,59.0,51.0,52.0,49.4,46.0,84,71,52,30.22,30.15,0,0,0,0.00
2013-1-22,69.3,54.3,45.8,50.0,47.8,43.0,90,80,51,30.28,30.19,2,0,0,0.00
2013-1-23,73.3,63.9,49.6,59.0,57.2,47.0,89,79,52,30.28,30.22,1,0,0,0.00
2013-1-24,79.4,69.6,63.4,62.0,60.5,57.0,89,74,51,30.18,30.12,3,1,0,0.01
2013-1-25,80.5,70.7,59.9,65.0,63.0,57.0,91,78,52,30.14,30.04,4,1,0,0.00
2013-1-26,79.8,70.4,63.4,64.0,59.5,57.0,88,70,45,30.17,30.06,3,1,0,0.00
2013-1-27,74.0,70.4,62.9,66.0,64.0,58.0,84,80,72,30.11,30.02,5,2,0,0.00
2013-1-28,79.6,73.1,69.8,67.0,65.3,61.0,84,77,54,30.06,29.95,3,0,0,0.00
2013-1-29,75.4,72.0,59.0,68.0,65.1,56.0,88,79,75,29.94,29.59,0,0,0,0.25
2013-1-30,59.8,51.6,41.2,51.0,29.1,24.0,76,45,27,30.22,29.76,0,0,0,0.00
2013-1-31,67.4,53.9,37.5,33.0,30.0,22.0,83,43,18,30.30,30.19,3,0,0,0.00
2013-2-1,71.1,59.0,53.1,46.0,39.7,34.0,69,51,27,30.27,30.23,5,1,0,0.00
2013-2-2,75.8,60.8,48.2,53.0,50.5,45.0,91,71,37,30.24,30.15,3,0,0,0.00
2013-2-3,73.3,59.5,51.9,51.0,40.5,26.0,86,54,17,30.27,30.05,3,0,0,0.00
2013-2-4,72.7,65.1,59.8,63.0,61.4,54.0,92,88,65,29.96,29.82,1,0,0,0.08
2013-2-5,77.9,68.8,62.7,65.0,62.9,61.0,94,82,60,29.98,29.86,2,0,0,0.01
2013-2-6,65.5,62.6,61.6,64.0,58.7,57.0,93,87,84,29.99,29.84,11,2,0,0.34
2013-2-7,72.3,65.5,56.6,61.0,59.6,54.0,93,81,66,29.97,29.87,3,1,0,0.00
2013-2-8,73.0,59.3,54.4,50.0,48.5,48.0,81,69,41,30.16,30.04,4,0,0,0.00
2013-2-9,69.4,66.0,54.7,65.0,60.5,49.0,86,83,68,30.12,29.84,9,3,0,0.00
2013-2-10,69.6,63.6,58.7,65.0,51.8,49.0,86,66,60,29.95,29.84,4,0,0,0.04
2013-2-11,62.6,54.5,52.8,52.0,50.8,46.0,92,88,58,30.04,29.95,6,2,0,0.16
2013-2-12,63.2,58.5,53.8,58.0,52.5,50.0,94,81,72,29.93,29.82,2,0,0,0.03
2013-2-13,62.4,52.8,46.7,44.0,38.2,36.0,71,59,39,30.09,29.98,3,0,0,0.00
2013-2-14,62.3,52.3,39.6,43.0,35.6,28.0,88,55,34,30.15,30.06,4,0,0,0.00
2013-2-15,63.9,50.9,41.6,42.0,37.5,30.0,87,62,41,30.31,30.08,8,2,0,0.00
2013-2-16,62.3,51.5,44.5,32.0,28.1,21.0,63,43,23,30.39,30.24,7,1,0,0.00
2013-2-17,72.3,60.4,44.5,50.0,43.9,31.0,85,57,28,30.24,30.03,7,1,0,0.00
2013-2-18,75.1,65.1,56.9,65.0,53.0,-99.9,90,72,63,30.07,29.83,9,-41,0,0.09
2013-2-19,72.1,58.8,48.9,54.0,37.1,29.0,90,48,21,30.24,30.07,4,1,0,0.00
2013-2-20,62.1,56.5,52.2,59.0,45.9,34.0,93,69,49,30.11,29.77,9,2,0,0.11
2013-2-21,76.3,67.5,56.7,69.0,58.7,46.0,94,76,42,29.84,29.66,10,2,0,0.17
2013-2-22,64.7,59.4,54.7,50.0,45.1,36.0,78,60,45,29.98,29.82,5,1,0,0.00
2013-2-23,71.5,57.9,48.6,47.0,44.2,41.0,77,62,41,29.99,29.86,5,1,0,0.00
2013-2-24,70.4,59.4,46.1,57.0,48.0,41.0,90,68,42,29.93,29.65,8,1,0,0.00
2013-2-25,75.3,62.6,48.6,64.0,41.7,-99.9,92,56,12,29.76,29.50,19,-7,0,0.01
2013-2-26,64.3,53.2,44.2,38.0,32.1,29.0,61,47,27,29.91,29.75,10,2,0,0.00
2013-2-27,70.2,52.6,46.4,53.0,26.6,-99.9,89,47,30,30.15,29.89,9,-84,0,0.00
2013-2-28,58.6,43.8,40.8,34.0,14.6,-99.9,73,42,33,30.27,30.14,5,-119,0,0.00
2013-3-1,67.2,47.4,37.7,35.0,15.7,-99.9,84,41,23,30.28,30.12,6,-116,0,0.00
2013-3-2,57.3,42.9,39.4,35.0,13.1,-99.9,70,42,26,30.35,30.23,6,-116,0,0.00
2013-3-3,72.2,49.4,35.2,51.0,21.2,-99.9,83,47,27,30.27,29.99,5,-113,0,0.00
2013-3-4,80.7,61.5,56.1,63.0,41.6,-99.9,87,63,47,29.99,29.75,13,-101,0,0.00
2013-3-5,69.3,55.9,51.7,63.0,23.8,-99.9,84,41,23,30.30,29.80,11,-112,0,0.00
2013-3-6,70.9,50.5,43.2,39.0,15.5,-99.9,59,33,18,30.41,30.21,3,-94,0,0.00
2013-3-7,70.5,51.9,43.7,51.0,29.5,-99.9,87,58,45,30.27,30.16,8,-114,0,0.00
2013-3-8,70.6,57.4,52.5,60.0,43.7,-99.9,94,75,67,30.19,30.06,7,-82,0,0.00
2013-3-9,75.3,59.2,62.1,65.0,39.2,-99.9,91,69,68,30.06,29.76,9,-143,0,0.00
2013-3-10,69.6,51.3,54.2,66.0,24.1,-99.9,94,57,44,30.05,29.71,6,-183,0,0.03
2013-3-11,63.2,48.7,43.9,39.0,15.7,-99.9,71,37,18,30.12,29.98,9,-92,0,0.00
2013-3-12,76.2,52.2,37.5,43.0,21.2,-99.9,86,43,21,30.23,30.06,6,-103,0,0.00
2013-3-13,77.4,55.1,44.3,48.0,26.8,-99.9,92,48,25,30.43,30.23,5,-103,0,0.00
2013-3-14,78.1,56.8,45.8,53.0,31.6,-99.9,94,53,30,30.40,30.25,5,-103,0,0.00
2013-3-15,81.2,64.8,49.2,56.0,50.5,46.0,91,64,29,30.27,30.04,9,1,0,0.00
2013-3-16,82.4,69.2,59.3,59.0,56.3,52.0,87,66,36,30.04,29.82,6,2,0,0.00
2013-3-17,84.1,71.7,62.9,65.0,61.8,59.0,90,73,46,29.86,29.67,8,2,0,0.00
2013-3-18,91.8,77.0,68.1,66.0,61.9,54.0,89,64,29,29.88,29.69,6,1,0,0.00
2013-3-19,81.6,70.9,61.5,62.0,55.8,39.0,80,60,38,29.97,29.86,5,1,0,0.00
2013-3-20,79.4,65.4,56.2,61.0,47.1,31.0,89,58,18,30.18,29.92,8,1,0,0.10
2013-3-21,74.7,63.8,51.2,60.0,52.7,44.0,90,69,40,30.01,29.70,8,2,0,0.00
2013-3-22,83.4,74.5,67.3,67.0,64.7,60.0,88,72,55,29.72,29.63,6,1,0,0.00
2013-3-23,75.3,69.6,63.9,67.0,64.2,59.0,89,83,72,29.72,29.57,3,0,0,0.00
2013-3-24,65.6,57.5,49.6,62.0,38.1,25.0,90,52,26,30.12,29.62,12,3,0,0.00
2013-3-25,62.9,51.3,41.1,30.0,22.9,16.0,61,36,18,30.36,30.12,6,1,0,0.00
2013-3-26,65.5,51.8,39.2,29.0,21.6,18.0,54,33,17,30.48,30.30,5,1,0,0.00
2013-3-27,71.8,55.8,38.3,47.0,36.8,29.0,76,52,27,30.36,30.20,6,1,0,0.00
2013-3-28,72.3,64.9,56.2,55.0,53.0,47.0,80,66,54,30.24,30.16,5,2,0,0.00
2013-3-29,79.2,67.6,57.5,60.0,57.6,55.0,91,72,45,30.20,30.09,5,2,0,0.00
2013-3-30,81.4,70.9,64.0,66.0,60.8,-99.9,91,73,54,30.13,29.94,4,-9,0,0.00
2013-3-31,84.9,70.0,62.6,65.0,63.2,60.0,93,81,47,29.96,29.84,9,1,0,0.13
2013-4-1,83.8,69.2,59.8,65.0,61.0,58.0,93,77,49,30.05,29.93,4,1,0,0.01
2013-4-2,71.1,65.2,62.0,65.0,58.0,-99.9,92,81,73,30.00,29.82,4,-21,0,0.84
2013-4-3,66.6,59.7,52.6,61.0,56.1,50.0,94,88,69,30.06,29.75,10,1,0,0.08
2013-4-4,56.5,52.2,49.9,50.0,45.0,40.0,93,77,62,30.17,30.01,10,2,0,0.00
2013-4-5,74.9,58.6,44.5,48.0,43.6,41.0,88,61,33,30.23,30.07,5,1,0,0.00
2013-4-6,78.5,64.6,51.0,59.0,53.1,46.0,90,68,44,30.10,29.93,7,1,0,0.00
2013-4-7,80.5,71.1,62.6,62.0,58.9,57.0,84,67,47,29.97,29.83,8,2,0,0.00
2013-4-8,81.4,73.3,66.9,66.0,63.9,60.0,93,74,49,29.86,29.75,9,3,0,0.00
2013-4-9,83.8,75.2,69.3,69.0,66.5,64.0,84,75,57,29.79,29.68,11,4,0,0.00
2013-4-10,82.0,68.5,48.6,70.0,62.5,46.0,91,81,64,29.84,29.69,9,3,0,0.09
2013-4-11,72.1,54.3,42.5,46.0,42.2,39.0,91,68,32,29.91,29.77,10,2,0,0.52
2013-4-12,84.1,63.1,46.4,53.0,44.5,37.0,91,58,20,30.00,29.86,5,0,0,0.00
2013-4-13,78.3,65.6,52.3,58.0,51.5,43.0,92,65,29,29.96,29.80,7,2,0,0.00
2013-4-14,85.9,70.1,57.8,67.0,61.4,55.0,92,75,47,29.80,29.64,5,1,0,0.00
2013-4-15,83.8,75.6,70.1,69.0,67.0,65.0,88,75,57,29.83,29.72,6,2,0,0.00
2013-4-16,84.5,76.4,72.1,71.0,68.8,67.0,88,78,56,29.92,29.81,7,2,0,0.00
2013-4-17,77.4,74.8,73.2,72.0,70.2,69.0,90,85,80,29.91,29.74,8,3,0,0.02
2013-4-18,76.7,65.7,53.6,70.0,59.3,41.0,89,80,60,30.03,29.69,12,3,0,0.10
2013-4-19,68.8,55.8,47.4,41.0,32.0,26.0,63,43,20,30.23,30.02,9,2,0,0.00
2013-4-20,71.8,56.7,41.8,46.0,38.1,31.0,81,53,27,30.24,30.07,7,1,0,0.00
2013-4-21,73.9,63.2,52.2,54.0,50.6,46.0,85,65,46,30.15,30.04,10,1,0,0.00
2013-4-22,83.7,66.7,53.8,64.0,55.9,-99.9,91,72,46,30.10,29.92,5,-10,0,0.00
2013-4-23,81.8,72.1,61.4,67.0,62.8,59.0,95,74,54,29.96,29.85,8,1,0,0.00
2013-4-24,73.3,60.9,48.9,67.0,45.7,41.0,86,60,36,30.20,29.95,5,2,0,0.00
2013-4-25,79.4,66.4,57.0,56.0,45.8,40.0,67,50,25,30.29,30.16,6,1,0,0.00
2013-4-26,84.1,73.9,67.3,66.0,63.7,56.0,88,72,52,30.18,30.06,11,2,0,0.00
2013-4-27,80.5,71.0,64.0,69.0,66.1,62.0,94,85,66,30.10,29.94,7,1,0,1.84
2013-4-28,83.6,72.0,63.4,64.0,61.5,58.0,93,72,46,30.03,29.86,7,1,0,0.01
2013-4-29,87.2,73.0,64.0,68.0,63.7,59.0,93,75,42,29.92,29.81,4,1,0,0.00
2013-4-30,87.4,75.0,66.3,67.0,63.6,59.0,91,70,41,29.83,29.70,4,1,0,0.00
2013-5-1,88.8,76.6,66.3,67.0,64.5,60.0,93,69,39,29.86,29.78,4,0,0,0.00
2013-5-2,75.3,66.9,51.1,68.0,56.7,41.0,83,70,61,30.17,29.86,11,2,0,0.00
2013-5-3,69.3,56.1,47.0,41.0,33.4,26.0,70,47,21,30.18,30.03,12,3,0,0.00
2013-5-4,81.6,63.5,43.9,48.0,38.9,32.0,83,46,20,30.07,29.84,9,2,0,0.00
2013-5-5,74.2,63.6,53.1,49.0,42.3,38.0,68,48,29,30.08,29.94,6,1,0,0.00
2013-5-6,81.0,65.1,49.9,56.0,50.0,44.0,84,61,41,30.09,29.96,4,1,0,0.00
2013-5-7,88.4,72.0,56.2,57.0,53.2,50.0,87,56,27,30.05,29.93,4,1,0,0.00
2013-5-8,86.7,73.7,63.5,63.0,60.0,56.0,86,64,36,30.05,29.94,7,2,0,0.00
2013-5-9,78.6,74.3,69.8,70.0,67.6,64.0,86,79,72,29.98,29.83,7,1,0,0.00
2013-5-10,83.0,72.7,66.4,71.0,65.7,63.0,93,80,55,30.03,29.79,6,1,0,1.89
2013-5-11,86.5,74.4,64.7,68.0,62.3,53.0,94,70,41,30.07,29.91,6,1,0,0.00
2013-5-12,85.7,73.4,63.4,60.0,55.2,51.0,77,55,31,30.16,30.06,3,0,0,0.00
2013-5-13,85.9,70.5,55.9,58.0,52.1,45.0,88,57,24,30.27,30.15,5,1,0,0.00
2013-5-14,86.1,73.0,62.7,65.0,61.1,54.0,93,69,36,30.21,30.07,7,1,0,0.00
2013-5-15,81.1,72.7,69.1,69.0,65.8,63.0,91,79,58,30.12,29.90,7,2,0,0.13
2013-5-16,86.3,76.5,69.8,70.0,67.9,66.0,89,75,55,29.94,29.79,8,2,0,0.01
2013-5-17,91.0,80.2,73.3,73.0,69.8,67.0,86,72,53,29.92,29.82,8,2,0,0.00
2013-5-18,94.3,81.6,75.1,71.0,69.1,66.0,85,68,42,29.93,29.86,6,2,0,0.00
2013-5-19,91.4,81.2,75.3,71.0,69.2,67.0,81,68,46,29.89,29.79,9,2,0,0.00
2013-5-20,90.3,81.6,77.4,72.0,70.6,69.0,81,70,51,29.87,29.75,7,3,0,0.00
2013-5-21,82.0,79.0,76.8,72.0,71.7,70.0,83,79,69,29.84,29.71,5,1,0,0.00
2013-5-22,92.5,80.5,71.6,74.0,70.8,66.0,91,73,51,29.90,29.78,4,1,0,0.03
2013-5-23,92.7,82.0,74.9,73.0,71.2,68.0,89,71,47,30.03,29.88,4,1,0,0.00
2013-5-24,90.5,81.3,75.6,73.0,71.3,69.0,88,73,50,30.10,29.98,6,1,0,0.00
2013-5-25,85.5,79.5,73.9,72.0,69.4,66.0,88,72,53,30.12,30.02,7,1,0,0.00
2013-5-26,91.2,81.4,76.0,72.0,68.8,64.0,85,67,42,30.08,29.98,7,1,0,0.00
2013-5-27,90.3,80.9,73.5,70.0,69.1,66.0,85,69,50,30.02,29.89,8,2,0,0.00
2013-5-28,89.9,80.4,74.4,72.0,69.0,65.0,83,69,49,29.94,29.84,8,2,0,0.00
2013-5-29,85.5,80.1,75.6,71.0,70.2,68.0,83,72,58,29.87,29.78,11,2,0,0.00
2013-5-30,89.9,82.1,76.8,74.0,71.9,70.0,84,72,55,29.85,29.78,10,2,0,0.00
2013-5-31,94.9,84.5,78.6,77.0,74.8,72.0,87,73,53,29.88,29.80,8,2,0,0.00
2013-6-1,96.3,85.1,78.8,76.0,73.4,71.0,90,70,44,29.88,29.80,6,2,0,0.00
2013-6-2,86.5,77.4,70.1,74.0,69.8,67.0,93,78,54,30.02,29.86,5,1,0,0.49
2013-6-3,96.3,80.4,68.1,68.0,64.2,58.0,92,62,29,29.94,29.80,5,0,0,0.00
2013-6-4,97.5,82.0,70.4,71.0,67.4,61.0,90,64,30,29.89,29.79,4,1,0,0.00
2013-6-5,97.1,83.9,72.5,74.0,71.1,69.0,92,68,41,29.87,29.72,4,1,0,0.00
2013-6-6,97.5,83.3,74.6,75.0,70.6,67.0,94,69,40,29.86,29.68,7,1,0,0.00
2013-6-7,90.3,77.8,69.3,67.0,63.5,56.0,88,64,36,29.92,29.82,5,0,0,0.00
2013-6-8,94.0,78.9,68.3,69.0,64.7,59.0,81,63,37,29.91,29.80,7,1,0,0.00
2013-6-9,91.8,76.8,71.5,74.0,70.7,69.0,93,82,52,29.95,29.82,6,0,0,1.09
2013-6-10,96.1,81.6,70.4,74.0,71.1,68.0,94,73,40,29.96,29.91,8,1,0,0.00
2013-6-11,94.5,83.4,76.5,79.0,73.5,71.0,90,73,49,30.02,29.94,4,1,0,0.04
2013-6-12,97.3,85.2,77.4,75.0,73.4,71.0,88,69,43,30.04,29.94,4,1,0,0.00
2013-6-13,99.0,85.5,76.8,76.0,73.3,71.0,88,69,41,30.04,29.88,4,0,0,0.00
2013-6-14,98.2,86.8,77.0,76.0,72.4,66.0,91,65,35,29.95,29.84,3,0,0,0.00
2013-6-15,97.5,86.4,78.8,75.0,71.7,66.0,84,63,36,29.97,29.86,4,1,0,0.00
2013-6-16,98.0,86.0,76.5,74.0,71.5,67.0,87,64,37,30.00,29.88,5,1,0,0.00
2013-6-17,98.2,86.1,77.4,74.0,71.9,66.0,86,65,37,29.98,29.84,7,1,0,0.00
2013-6-18,96.6,83.1,77.2,76.0,72.1,66.0,87,71,38,29.96,29.84,7,1,0,0.42
2013-6-19,97.8,82.9,74.9,75.0,71.3,65.0,91,71,36,29.97,29.88,4,1,0,0.18
2013-6-20,97.1,85.0,76.3,76.0,72.5,68.0,91,69,38,30.05,29.94,6,1,0,0.01
2013-6-21,98.0,85.6,76.8,75.0,71.5,64.0,90,65,34,30.07,29.98,4,0,0,0.00
2013-6-22,98.7,85.9,76.3,75.0,70.3,64.0,89,63,34,30.04,29.92,8,1,0,0.00
2013-6-23,97.3,85.3,76.3,74.0,70.9,65.0,87,64,35,30.00,29.91,6,1,0,0.00
2013-6-24,97.1,86.1,77.6,74.0,71.1,65.0,84,63,35,30.03,29.94,6,1,0,0.00
2013-6-25,99.0,86.9,78.8,74.0,72.0,66.0,84,64,35,30.01,29.91,5,2,0,0.00
2013-6-26,101.5,87.4,79.2,74.0,71.2,66.0,81,61,32,29.98,29.88,7,1,0,0.00
2013-6-27,102.3,87.4,77.4,73.0,70.1,63.0,86,60,28,30.01,29.87,6,1,0,0.00
2013-6-28,103.1,88.4,78.6,74.0,69.0,59.0,84,57,26,29.96,29.77,6,1,0,0.00
2013-6-29,107.1,91.5,79.2,75.0,68.5,59.0,79,52,22,29.83,29.67,8,2,0,0.00
2013-6-30,99.0,89.5,76.5,75.0,59.1,52.0,68,38,24,29.84,29.73,6,1,0,0.00
2013-7-1,94.5,83.6,72.8,61.0,57.1,54.0,62,42,26,29.92,29.82,6,0,0,0.00
2013-7-2,98.0,83.0,71.3,71.0,59.6,53.0,85,49,23,29.98,29.88,3,0,0,0.10
2013-7-3,97.8,82.5,70.8,68.0,62.7,55.0,83,55,25,30.00,29.87,5,0,0,0.01
2013-7-4,96.8,82.7,72.5,73.0,65.2,57.0,91,60,28,29.96,29.85,4,0,0,0.37
2013-7-5,98.2,83.7,71.6,73.0,68.2,59.0,93,65,27,29.95,29.82,4,0,0,0.01
2013-7-6,97.1,83.9,76.3,74.0,71.0,63.0,87,68,33,29.91,29.82,4,0,0,0.00
2013-7-7,92.3,82.8,77.0,76.0,72.0,69.0,87,71,47,29.98,29.88,5,1,0,0.03
2013-7-8,91.4,80.4,73.7,76.0,72.5,70.0,92,77,50,30.14,29.98,6,0,0,0.74
2013-7-9,98.2,85.7,75.6,75.0,72.6,70.0,91,67,42,30.12,30.01,7,1,0,0.00
2013-7-10,98.7,85.0,76.7,80.0,72.6,68.0,90,68,37,30.07,29.92,5,0,0,0.13
2013-7-11,99.2,86.4,77.2,74.0,70.2,61.0,87,62,29,29.99,29.86,6,1,0,0.00
2013-7-12,99.2,86.8,79.2,74.0,71.6,68.0,82,63,37,29.94,29.84,4,1,0,0.00
2013-7-13,99.2,86.8,76.7,75.0,69.8,65.0,84,59,33,29.96,29.80,5,0,0,0.00
2013-7-14,92.5,83.6,72.5,74.0,70.9,68.0,90,67,44,29.93,29.83,4,0,0,0.18
2013-7-15,90.1,78.0,72.1,73.0,71.0,68.0,91,80,52,30.02,29.88,10,0,0,0.04
2013-7-16,92.7,79.8,74.0,74.0,72.0,69.0,92,79,49,30.09,30.00,5,1,0,0.17
2013-7-17,85.5,76.9,74.2,74.0,72.9,72.0,93,88,65,30.14,30.07,3,0,0,0.33
2013-7-24,98.5,88.8,77.2,74.0,71.0,66.0,86,58,35,29.98,29.84,7,1,0,0.00
2013-7-25,101.2,86.6,77.9,75.0,71.5,65.0,84,64,31,30.00,29.92,6,1,0,0.00
2013-7-26,99.4,86.6,78.3,76.0,72.3,63.0,88,65,31,30.02,29.86,8,1,0,0.00
2013-7-27,95.9,85.2,77.2,76.0,73.6,67.0,91,70,39,29.94,29.82,9,1,0,0.22
2013-7-28,95.9,85.9,77.6,76.0,72.7,66.0,88,67,41,29.95,29.86,5,1,0,0.04
2013-7-29,99.2,87.0,79.0,75.0,70.4,58.0,85,62,27,30.06,29.94,6,1,0,0.00
2013-7-30,99.4,86.4,77.6,74.0,71.1,64.0,85,63,31,30.10,29.99,8,1,0,0.00
2013-7-31,103.3,86.6,75.6,75.0,70.9,63.0,88,63,28,30.07,29.91,8,1,0,0.00
2013-8-1,102.8,88.6,79.2,75.0,71.2,63.0,85,60,27,30.01,29.86,8,1,0,0.00
2013-8-2,99.4,87.0,78.5,75.0,72.0,65.0,86,63,33,29.97,29.87,5,1,0,0.00
2013-8-3,100.7,86.7,77.7,75.0,72.5,67.0,85,65,35,30.01,29.93,6,1,0,0.00
2013-8-4,97.1,84.9,78.1,78.0,74.2,70.0,88,72,41,30.06,29.94,7,1,0,0.17
2013-8-5,102.4,87.6,78.3,77.0,75.0,72.0,87,69,38,30.02,29.88,10,2,0,0.00
2013-8-6,101.9,88.2,79.0,79.0,76.0,73.0,92,70,41,29.96,29.84,8,2,0,0.00
2013-8-7,102.8,88.1,79.2,78.0,72.3,61.0,91,64,26,29.92,29.80,6,2,0,0.00
2013-8-8,101.7,86.7,78.1,75.0,72.0,65.0,87,65,31,29.92,29.80,5,1,0,0.00
2013-8-9,101.5,87.5,76.0,75.0,72.3,67.0,89,64,34,29.94,29.83,3,1,0,0.00
2013-8-10,94.9,83.1,77.4,77.0,75.0,71.0,90,78,46,30.03,29.93,5,0,0,0.24
2013-8-11,92.9,82.8,77.4,78.0,74.3,71.0,93,77,49,30.04,29.97,5,0,0,0.29
2013-8-12,96.8,84.2,76.5,80.0,73.5,69.0,89,72,42,30.05,29.94,6,1,0,0.09
2013-8-13,102.0,88.2,78.6,76.0,71.6,61.0,88,62,27,30.02,29.85,12,1,0,0.00
2013-8-14,99.4,83.5,74.0,76.0,72.5,66.0,92,73,34,29.96,29.83,7,1,0,0.35
2013-8-15,91.8,79.7,74.4,76.0,72.8,68.0,93,81,46,29.99,29.89,0,0,0,0.08
2013-8-16,96.8,80.7,72.7,74.0,70.2,-99.9,96,75,40,29.97,29.84,4,-10,0,0.48
2013-8-17,97.3,81.4,69.4,73.0,65.8,55.0,96,65,25,29.99,29.88,7,0,0,0.00
2013-8-18,95.4,82.0,70.1,69.0,65.4,62.0,81,60,33,30.01,29.93,4,0,0,0.00
2013-8-19,98.0,83.3,72.1,70.0,66.6,56.0,87,60,29,30.02,29.90,6,0,0,0.00
2013-8-20,89.7,79.8,73.7,76.0,70.9,68.0,90,75,53,30.02,29.93,5,0,0,0.30
2013-8-21,96.6,83.4,73.7,75.0,71.4,68.0,92,70,39,30.05,29.95,4,0,0,0.00
2013-8-22,97.1,85.5,76.8,75.0,72.9,70.0,90,68,42,30.04,29.91,4,0,0,0.00
2013-8-23,100.2,86.9,76.7,74.0,71.3,66.0,88,63,34,29.98,29.85,3,0,0,0.00
2013-8-24,99.2,87.4,78.6,74.0,71.2,65.0,82,61,33,29.99,29.90,6,0,0,0.00
2013-8-25,88.0,80.6,77.4,78.0,72.4,71.0,88,76,60,30.06,29.98,4,0,0,0.39
2013-8-26,79.8,76.9,75.3,75.0,72.2,70.0,91,85,74,30.10,30.02,3,0,0,0.21
2013-8-27,94.3,81.1,73.5,74.0,71.1,68.0,90,73,45,30.10,30.00,4,0,0,0.01
2013-8-28,97.5,84.0,73.2,74.0,69.1,64.0,91,64,35,30.07,29.95,3,0,0,0.00
2013-8-29,100.2,86.7,77.0,74.0,70.8,65.0,85,62,31,30.05,29.89,7,1,0,0.00
2013-8-30,98.7,86.1,79.4,75.0,72.4,70.0,83,65,40,30.00,29.86,5,1,0,0.00
2013-8-31,98.2,85.5,74.9,73.0,70.1,66.0,87,63,36,29.93,29.80,4,0,0,0.00
2013-9-1,98.7,85.5,74.9,73.0,70.0,65.0,88,63,33,29.91,29.79,5,1,0,0.00
2013-9-2,99.9,86.1,77.0,75.0,71.5,63.0,88,64,30,29.95,29.81,5,1,0,0.00
2013-9-3,101.5,87.4,77.2,74.0,70.3,63.0,87,60,28,29.96,29.82,7,1,0,0.00
2013-9-4,97.5,86.8,78.8,74.0,70.8,66.0,83,61,36,30.02,29.90,6,1,0,0.00
2013-9-5,98.5,85.1,77.4,75.0,72.0,67.0,87,66,37,30.06,29.97,6,0,0,0.00
2013-9-6,94.7,84.4,77.2,74.0,72.2,69.0,87,68,45,30.05,29.94,6,1,0,0.00
2013-9-7,93.2,81.7,76.7,75.0,72.0,67.0,88,73,49,30.01,29.90,5,0,0,0.00
2013-9-8,94.7,82.0,74.2,74.0,71.2,68.0,90,72,41,29.95,29.87,6,1,0,0.00
2013-9-9,94.0,82.5,74.7,73.0,70.5,65.0,90,69,39,29.96,29.90,8,1,0,0.00
2013-9-10,92.3,81.8,75.3,75.0,71.7,67.0,91,73,46,30.04,29.95,6,1,0,0.04
2013-9-11,96.3,82.7,73.7,73.0,70.4,65.0,90,69,37,30.06,29.95,6,1,0,0.00
2013-9-12,97.3,84.0,74.9,73.0,68.9,61.0,88,64,30,30.01,29.87,4,1,0,0.00
2013-9-13,99.7,84.8,73.2,70.0,66.6,60.0,84,58,28,29.92,29.77,7,0,0,0.00
2013-9-14,93.4,83.8,76.8,73.0,71.1,69.0,82,66,45,29.90,29.81,5,0,0,0.00
2013-9-15,91.6,82.3,75.3,77.0,72.1,68.0,88,73,46,29.98,29.89,5,0,0,0.43
2013-9-16,92.7,81.1,75.6,75.0,73.1,71.0,90,77,52,30.01,29.93,6,0,0,0.09
2013-9-17,93.6,83.4,76.1,77.0,72.4,68.0,90,72,44,30.02,29.91,7,1,0,0.03
2013-9-18,94.0,83.8,76.1,75.0,72.3,67.0,90,70,46,29.97,29.87,8,1,0,0.00
2013-9-19,91.6,80.4,76.5,79.0,74.8,72.0,93,84,54,29.93,29.83,6,0,0,0.57
2013-9-20,81.4,77.4,73.2,78.0,75.2,71.0,95,93,84,29.87,29.70,6,0,0,3.68
2013-9-21,83.2,74.1,70.6,72.0,68.5,65.0,95,83,58,29.81,29.72,5,0,0,0.07
2013-9-22,87.2,75.4,64.7,66.0,58.8,53.0,86,59,33,29.83,29.71,7,0,0,0.00
2013-9-23,90.2,79.5,70.4,73.0,64.7,56.0,82,61,47,29.79,29.70,3,0,0,0.00
2013-9-24,97.3,83.5,75.3,74.0,69.2,59.0,92,66,29,29.83,29.74,3,0,0,0.00
2013-9-25,98.0,81.6,67.9,68.0,62.7,54.0,90,58,23,29.85,29.74,6,0,0,0.00
2013-9-26,95.4,81.2,68.9,72.0,64.0,55.0,91,60,26,29.88,29.79,6,1,0,0.00
2013-9-27,88.4,80.9,73.7,75.0,71.3,67.0,87,73,59,29.92,29.85,5,1,0,0.00
2013-9-28,86.1,80.0,77.7,79.0,73.8,71.0,93,81,67,29.96,29.88,6,1,0,0.77
2013-9-29,85.7,79.3,76.5,76.0,73.2,72.0,91,81,65,29.96,29.87,6,0,0,0.20
2013-9-30,88.0,80.1,75.6,74.0,72.5,70.0,91,78,56,29.88,29.78,5,0,0,0.00
2013-10-1,89.7,80.6,75.4,76.0,71.4,68.0,92,75,49,29.92,29.83,6,1,0,0.01
2013-10-2,84.0,79.8,76.8,76.0,72.8,71.0,87,79,68,29.95,29.87,4,0,0,0.08
2013-10-3,90.3,80.5,73.7,76.0,72.1,70.0,93,77,52,29.93,29.84,5,0,0,0.02
2013-10-4,93.2,81.2,71.3,74.0,70.6,67.0,92,72,43,29.92,29.84,6,1,0,0.00
2013-10-5,94.3,82.1,69.3,75.0,70.1,60.0,92,70,40,29.94,29.81,10,1,0,0.00
2013-10-6,80.7,67.5,57.2,60.0,47.7,36.0,88,53,24,30.08,29.93,5,1,0,0.14
2013-10-7,83.8,66.7,52.6,50.0,44.0,37.0,73,48,20,30.12,30.00,6,0,0,0.00
2013-10-8,85.7,67.4,52.9,56.0,50.4,46.0,88,60,26,30.08,29.97,2,0,0,0.00
2013-10-9,86.7,70.5,57.3,61.0,57.7,55.0,92,67,36,30.06,29.96,5,0,0,0.00
2013-10-10,88.6,73.7,62.3,66.0,62.2,58.0,91,70,38,30.04,29.91,4,0,0,0.00
2013-10-11,89.0,78.3,67.4,73.0,68.1,64.0,91,72,53,29.94,29.85,6,1,0,0.00
2013-10-12,89.0,77.7,72.1,76.0,73.0,68.0,93,86,56,30.03,29.89,7,0,0,0.86
2013-10-13,75.1,72.9,71.3,73.0,70.9,69.0,94,93,93,30.13,30.02,2,0,0,0.25
2013-10-14,85.1,77.0,70.8,74.0,69.2,66.0,94,78,54,30.07,29.94,9,1,0,0.00
2013-10-15,87.6,78.4,71.3,73.0,69.7,67.0,93,76,52,29.97,29.85,4,0,0,0.00
2013-10-16,74.4,72.9,71.5,68.0,68.0,68.0,87,84,81,29.91,29.87,0,0,0,0.00
2013-10-24,65.2,63.4,61.5,56.0,55.2,55.0,81,75,70,30.20,30.18,0,0,0,0.00
2013-10-25,73.0,61.4,56.7,56.0,54.4,53.0,91,79,52,30.33,30.20,4,0,0,0.00
2013-10-26,81.1,73.7,61.6,62.0,60.1,55.0,86,64,47,30.23,30.07,4,1,0,0.00
2013-10-27,78.3,66.7,61.0,65.0,62.0,59.0,94,85,61,30.08,29.98,4,0,0,0.82
2013-10-28,83.0,71.7,61.8,69.0,64.8,60.0,94,80,61,30.10,30.00,5,1,0,0.00
2013-10-29,83.8,75.9,68.8,69.0,67.1,65.0,90,75,57,30.09,30.01,6,1,0,0.00
2013-10-30,78.8,76.3,73.3,76.0,72.7,68.0,93,88,80,30.04,29.84,6,1,0,0.94
2013-10-31,77.7,68.4,56.3,74.0,63.2,-99.9,95,88,76,29.87,29.74,6,-20,0,1.69
2013-11-1,83.2,66.1,51.3,64.0,56.7,50.0,97,75,38,29.94,29.80,4,1,0,0.00
2013-11-2,73.9,63.9,54.5,56.0,43.6,35.0,88,51,25,30.20,29.94,5,1,0,0.00
2013-11-3,69.6,57.0,44.8,51.0,46.1,40.0,89,68,50,30.20,30.07,4,0,0,0.00
2013-11-4,72.7,64.8,54.5,65.0,58.3,47.0,89,80,71,30.08,29.98,5,1,0,0.01
2013-11-5,80.1,73.9,68.6,70.0,66.4,63.0,90,78,60,30.02,29.93,7,1,0,0.00
2013-11-6,79.6,69.1,54.5,72.0,62.5,44.0,94,80,65,30.25,29.97,7,1,0,0.02
2013-11-7,69.3,56.6,46.8,44.0,38.9,35.0,73,54,29,30.38,30.23,6,1,0,0.00
2013-11-8,66.6,57.0,48.8,47.0,41.0,34.0,79,58,31,30.35,30.16,4,0,0,0.00
2013-11-9,71.3,61.3,53.6,56.0,50.8,44.0,85,69,54,30.19,30.12,3,0,0,0.00
2013-11-10,76.1,62.4,56.6,52.0,49.7,44.0,84,65,32,30.28,30.16,4,0,0,0.00
2013-11-11,76.5,61.9,51.4,54.0,51.7,48.0,92,72,40,30.24,30.12,3,0,0,0.00
2013-11-12,70.8,57.8,48.2,54.0,50.1,40.0,92,77,54,30.54,30.20,6,1,0,0.00
2013-11-13,58.4,45.5,36.9,38.0,28.8,24.0,79,54,29,30.60,30.40,4,1,0,0.00
2013-11-14,63.1,50.2,38.8,49.0,40.2,32.0,81,69,53,30.39,30.05,4,0,0,0.00
2013-11-15,78.3,64.8,53.6,64.0,56.9,45.0,91,76,55,30.05,29.89,4,0,0,0.00
2013-11-16,80.1,71.3,60.4,72.0,67.0,58.0,94,86,72,29.93,29.77,5,1,0,0.00
2013-11-17,85.1,78.0,72.0,72.0,70.7,68.0,90,79,58,29.91,29.79,12,1,0,0.00
2013-11-18,78.3,71.9,63.9,71.0,60.0,43.0,94,69,41,30.10,29.91,4,0,0,0.00
2013-11-19,71.8,61.6,53.2,44.0,42.1,39.0,71,50,34,30.12,30.01,5,1,0,0.00
2013-11-20,71.6,62.6,51.1,65.0,53.1,39.0,89,71,58,30.03,29.91,6,1,0,0.01
2013-11-21,80.2,73.9,67.9,76.0,70.4,65.0,95,89,74,30.06,29.95,6,1,0,0.16
2013-11-22,74.2,56.0,43.6,72.0,53.7,41.0,94,91,83,30.27,30.04,7,2,0,1.55
2013-11-23,48.5,45.9,42.9,46.0,42.6,38.0,93,88,74,30.37,30.25,6,1,0,0.16
2013-11-24,49.2,45.4,43.1,38.0,31.9,29.0,73,60,49,30.41,30.28,4,1,0,0.01
2013-11-25,43.3,41.4,38.6,41.0,38.3,34.0,95,89,70,30.28,29.94,5,1,0,1.11
2013-11-26,43.9,40.7,38.9,39.0,37.3,35.0,92,88,77,30.26,30.00,10,2,0,0.38
2013-11-27,51.1,40.6,33.5,35.0,28.9,23.0,87,66,34,30.43,30.26,4,1,0,0.00
2013-11-28,57.8,42.9,32.1,41.0,35.0,28.0,90,75,53,30.47,30.37,4,0,0,0.00
2013-11-29,63.7,47.8,35.8,41.0,36.1,30.0,90,67,39,30.50,30.38,3,0,0,0.00
2013-11-30,70.8,54.6,40.9,53.0,45.7,38.0,90,74,49,30.39,30.21,4,0,0,0.00
2013-12-1,71.5,60.7,50.1,60.0,55.1,48.0,94,83,65,30.20,29.93,3,0,0,0.00
2013-12-2,77.9,67.4,61.3,61.0,60.1,59.0,92,79,55,29.94,29.67,11,2,0,0.00
2013-12-3,80.5,69.6,61.8,66.0,62.2,59.0,92,79,53,29.71,29.61,7,1,0,0.00
2013-12-4,80.5,73.6,69.9,70.0,67.3,65.0,89,81,62,29.80,29.69,7,1,0,0.00
2013-12-5,75.3,58.6,39.1,72.0,53.7,36.0,92,84,69,30.02,29.78,10,2,0,0.00
2013-12-6,41.9,38.9,35.2,37.0,34.6,29.0,91,84,78,30.34,29.97,9,2,0,0.01
2013-12-7,37.8,35.8,33.8,34.0,31.1,29.0,87,83,79,30.38,30.25,5,1,0,0.00
2013-12-8,48.0,42.5,36.9,42.0,36.6,33.0,89,80,68,30.24,30.04,3,0,0,0.00
2013-12-9,47.4,44.8,40.5,44.0,42.0,38.0,91,90,86,30.28,30.04,3,1,0,0.07
2013-12-10,49.5,39.4,33.1,37.0,29.0,25.0,88,68,40,30.45,30.28,8,2,0,0.00
2013-12-11,52.5,44.5,34.7,38.0,35.4,31.0,86,71,54,30.49,30.32,3,0,0,0.00
2013-12-12,55.0,45.0,37.2,37.0,34.1,31.0,85,67,41,30.54,30.34,2,0,0,0.00
2013-12-13,56.5,50.2,41.9,53.0,44.8,35.0,94,82,69,30.34,29.85,4,0,0,0.05
2013-12-14,57.0,50.0,40.5,53.0,44.3,31.0,95,81,67,30.27,29.85,11,2,0,0.01
2013-12-15,57.6,42.7,32.1,35.0,31.0,28.0,87,66,34,30.37,30.26,4,0,0,0.00
2013-12-16,66.0,46.2,32.2,40.0,34.2,30.0,93,68,28,30.34,30.22,3,0,0,0.00
2013-12-17,71.6,50.9,36.6,47.0,39.8,34.0,93,71,28,30.34,30.22,4,0,0,0.00
2013-12-18,70.1,54.6,40.5,55.0,47.2,39.0,95,78,46,30.31,30.10,5,1,0,0.00
2013-12-19,74.4,66.1,55.9,65.0,59.6,50.0,89,80,67,30.09,29.87,7,1,0,0.02
2013-12-20,76.0,71.6,68.1,70.0,67.6,65.0,91,87,78,29.90,29.72,7,2,0,0.04
2013-12-21,73.5,66.4,55.4,71.0,63.5,54.0,94,90,85,29.82,29.56,7,2,0,1.22
2013-12-22,57.8,52.9,38.8,56.0,46.0,30.0,95,79,59,30.32,29.81,9,2,0,0.02
2013-12-23,55.4,41.3,33.2,33.0,30.1,27.0,83,67,37,30.51,30.32,9,1,0,0.00
2013-12-24,58.0,42.6,30.6,36.0,30.7,26.0,92,67,30,30.55,30.32,4,0,0,0.00
2013-12-25,60.2,50.1,38.8,47.0,42.2,35.0,88,75,60,30.35,30.27,6,0,0,0.00
2013-12-26,62.1,54.6,48.5,49.0,44.5,39.0,90,70,44,30.39,30.28,3,0,0,0.00
2013-12-27,58.3,52.4,49.1,44.0,39.3,35.0,76,62,44,30.42,30.30,2,0,0,0.00
2013-12-28,62.9,50.5,43.1,38.0,35.0,29.0,76,58,29,30.30,30.02,1,0,0,0.00
2013-12-29,67.4,52.6,39.1,47.0,39.3,32.0,91,64,32,30.15,29.98,2,0,0,0.00
2013-12-30,51.9,42.8,39.8,43.0,33.0,31.0,73,69,64,30.39,30.14,7,1,0,0.00
2013-12-31,49.4,44.5,39.8,38.0,33.2,30.0,70,65,55,30.44,30.27,3,0,0,0.00
2014-1-1,65.8,55.9,47.3,57.0,49.1,38.0,90,78,67,30.26,30.01,3,0,0,0.00
2014-1-2,58.6,47.1,39.1,57.0,31.6,21.0,93,57,31,30.43,30.05,10,3,0,0.02